sensor_id;sensor_type;location;lat;lon;timestamp;temperature;humidity
16827;DHT22;8530;49.540;8.576;2022-08-03T00:02:11;22.00;41.80
16827;DHT22;8530;49.540;8.576;2022-08-03T00:04:37;22.00;41.80
16827;DHT22;8530;49.540;8.576;2022-08-03T00:07:05;22.00;41.80
16827;DHT22;8530;49.540;8.576;2022-08-03T00:09:32;22.00;41.80
16827;DHT22;8530;49.540;8.576;2022-08-03T00:11:59;22.00;41.80
16827;DHT22;8530;49.540;8.576;2022-08-03T00:14:26;22.00;41.80
16827;DHT22;8530;49.540;8.576;2022-08-03T00:16:52;22.00;41.70
16827;DHT22;8530;49.540;8.576;2022-08-03T00:19:19;22.00;41.80
16827;DHT22;8530;49.540;8.576;2022-08-03T00:21:46;22.00;41.70
16827;DHT22;8530;49.540;8.576;2022-08-03T00:24:14;22.00;41.70
16827;DHT22;8530;49.540;8.576;2022-08-03T00:26:40;22.00;41.70
16827;DHT22;8530;49.540;8.576;2022-08-03T00:29:07;21.90;41.60
16827;DHT22;8530;49.540;8.576;2022-08-03T00:31:34;21.90;41.70
16827;DHT22;8530;49.540;8.576;2022-08-03T00:34:00;21.90;41.70
16827;DHT22;8530;49.540;8.576;2022-08-03T00:36:27;21.90;41.70
16827;DHT22;8530;49.540;8.576;2022-08-03T00:38:54;21.90;42.30
16827;DHT22;8530;49.540;8.576;2022-08-03T00:41:22;21.80;41.70
16827;DHT22;8530;49.540;8.576;2022-08-03T00:43:49;21.80;41.70
16827;DHT22;8530;49.540;8.576;2022-08-03T00:46:16;21.80;41.80
16827;DHT22;8530;49.540;8.576;2022-08-03T00:48:42;21.70;41.70
16827;DHT22;8530;49.540;8.576;2022-08-03T00:51:09;21.70;41.80
16827;DHT22;8530;49.540;8.576;2022-08-03T00:53:36;21.70;41.90
16827;DHT22;8530;49.540;8.576;2022-08-03T00:56:03;21.60;41.80
16827;DHT22;8530;49.540;8.576;2022-08-03T00:58:32;21.60;41.90
16827;DHT22;8530;49.540;8.576;2022-08-03T01:00:58;21.60;42.00
16827;DHT22;8530;49.540;8.576;2022-08-03T01:03:25;21.60;42.10
16827;DHT22;8530;49.540;8.576;2022-08-03T01:05:56;21.60;42.20
16827;DHT22;8530;49.540;8.576;2022-08-03T01:08:30;21.60;42.20
16827;DHT22;8530;49.540;8.576;2022-08-03T01:11:04;21.60;42.30
16827;DHT22;8530;49.540;8.576;2022-08-03T01:13:46;21.60;42.40
16827;DHT22;8530;49.540;8.576;2022-08-03T01:16:19;21.60;42.50
16827;DHT22;8530;49.540;8.576;2022-08-03T01:18:53;21.50;42.50
16827;DHT22;8530;49.540;8.576;2022-08-03T01:21:26;21.50;42.60
16827;DHT22;8530;49.540;8.576;2022-08-03T01:24:17;21.50;42.70
16827;DHT22;8530;49.540;8.576;2022-08-03T01:26:56;21.50;42.80
16827;DHT22;8530;49.540;8.576;2022-08-03T01:29:59;21.50;42.80
16827;DHT22;8530;49.540;8.576;2022-08-03T01:32:34;21.40;43.00
16827;DHT22;8530;49.540;8.576;2022-08-03T01:35:05;21.40;43.00
16827;DHT22;8530;49.540;8.576;2022-08-03T01:37:38;21.40;43.10
16827;DHT22;8530;49.540;8.576;2022-08-03T01:40:07;21.40;43.20
16827;DHT22;8530;49.540;8.576;2022-08-03T01:42:35;21.40;43.20
16827;DHT22;8530;49.540;8.576;2022-08-03T01:45:07;21.40;43.30
16827;DHT22;8530;49.540;8.576;2022-08-03T01:47:34;21.40;43.40
16827;DHT22;8530;49.540;8.576;2022-08-03T01:50:02;21.30;43.30
16827;DHT22;8530;49.540;8.576;2022-08-03T01:52:31;21.30;43.40
16827;DHT22;8530;49.540;8.576;2022-08-03T01:54:59;21.30;43.50
16827;DHT22;8530;49.540;8.576;2022-08-03T01:57:28;21.20;43.50
16827;DHT22;8530;49.540;8.576;2022-08-03T01:59:56;21.20;43.60
16827;DHT22;8530;49.540;8.576;2022-08-03T02:02:26;21.20;43.70
16827;DHT22;8530;49.540;8.576;2022-08-03T02:04:55;21.10;44.00
16827;DHT22;8530;49.540;8.576;2022-08-03T02:07:23;21.10;44.10
16827;DHT22;8530;49.540;8.576;2022-08-03T02:09:51;21.00;44.20
16827;DHT22;8530;49.540;8.576;2022-08-03T02:12:19;21.00;44.40
16827;DHT22;8530;49.540;8.576;2022-08-03T02:14:48;21.00;44.60
16827;DHT22;8530;49.540;8.576;2022-08-03T02:17:15;20.90;44.80
16827;DHT22;8530;49.540;8.576;2022-08-03T02:19:44;20.90;45.00
16827;DHT22;8530;49.540;8.576;2022-08-03T02:22:12;20.80;45.10
16827;DHT22;8530;49.540;8.576;2022-08-03T02:24:40;20.80;45.30
16827;DHT22;8530;49.540;8.576;2022-08-03T02:27:19;20.70;45.30
16827;DHT22;8530;49.540;8.576;2022-08-03T02:29:48;20.60;45.60
16827;DHT22;8530;49.540;8.576;2022-08-03T02:32:20;20.60;45.70
16827;DHT22;8530;49.540;8.576;2022-08-03T02:34:52;20.50;45.80
16827;DHT22;8530;49.540;8.576;2022-08-03T02:37:20;20.50;46.00
16827;DHT22;8530;49.540;8.576;2022-08-03T02:39:49;20.50;46.10
16827;DHT22;8530;49.540;8.576;2022-08-03T02:42:20;20.40;46.20
16827;DHT22;8530;49.540;8.576;2022-08-03T02:44:48;20.40;46.40
16827;DHT22;8530;49.540;8.576;2022-08-03T02:47:18;20.30;46.40
16827;DHT22;8530;49.540;8.576;2022-08-03T02:49:48;20.30;46.60
16827;DHT22;8530;49.540;8.576;2022-08-03T02:52:16;20.30;46.70
16827;DHT22;8530;49.540;8.576;2022-08-03T02:54:45;20.20;46.80
16827;DHT22;8530;49.540;8.576;2022-08-03T02:57:13;20.20;46.90
16827;DHT22;8530;49.540;8.576;2022-08-03T02:59:41;20.20;47.00
16827;DHT22;8530;49.540;8.576;2022-08-03T03:02:09;20.10;47.00
16827;DHT22;8530;49.540;8.576;2022-08-03T03:04:38;20.10;47.10
16827;DHT22;8530;49.540;8.576;2022-08-03T03:07:07;20.20;47.20
16827;DHT22;8530;49.540;8.576;2022-08-03T03:09:34;20.10;47.20
16827;DHT22;8530;49.540;8.576;2022-08-03T03:12:01;20.10;47.20
16827;DHT22;8530;49.540;8.576;2022-08-03T03:14:28;20.10;47.20
16827;DHT22;8530;49.540;8.576;2022-08-03T03:16:56;20.10;47.20
16827;DHT22;8530;49.540;8.576;2022-08-03T03:19:24;20.10;47.20
16827;DHT22;8530;49.540;8.576;2022-08-03T03:21:52;20.10;47.20
16827;DHT22;8530;49.540;8.576;2022-08-03T03:24:20;20.10;47.20
16827;DHT22;8530;49.540;8.576;2022-08-03T03:26:47;20.20;47.30
16827;DHT22;8530;49.540;8.576;2022-08-03T03:29:15;20.20;47.30
16827;DHT22;8530;49.540;8.576;2022-08-03T03:31:41;20.20;47.30
16827;DHT22;8530;49.540;8.576;2022-08-03T03:34:09;20.20;47.20
16827;DHT22;8530;49.540;8.576;2022-08-03T03:36:35;20.20;47.20
16827;DHT22;8530;49.540;8.576;2022-08-03T03:39:02;20.20;47.20
16827;DHT22;8530;49.540;8.576;2022-08-03T03:41:31;20.20;47.20
16827;DHT22;8530;49.540;8.576;2022-08-03T03:43:58;20.10;47.10
16827;DHT22;8530;49.540;8.576;2022-08-03T03:46:25;20.10;47.10
16827;DHT22;8530;49.540;8.576;2022-08-03T03:48:52;20.10;47.70
16827;DHT22;8530;49.540;8.576;2022-08-03T03:51:18;20.10;47.20
16827;DHT22;8530;49.540;8.576;2022-08-03T03:53:55;20.10;47.20
16827;DHT22;8530;49.540;8.576;2022-08-03T03:56:22;20.00;47.20
16827;DHT22;8530;49.540;8.576;2022-08-03T03:58:50;20.00;47.20
16827;DHT22;8530;49.540;8.576;2022-08-03T04:01:17;20.00;47.30
16827;DHT22;8530;49.540;8.576;2022-08-03T04:03:44;20.00;47.30
16827;DHT22;8530;49.540;8.576;2022-08-03T04:06:12;20.00;47.30
16827;DHT22;8530;49.540;8.576;2022-08-03T04:08:57;20.00;47.40
16827;DHT22;8530;49.540;8.576;2022-08-03T04:11:46;20.00;47.40
16827;DHT22;8530;49.540;8.576;2022-08-03T04:14:18;20.00;47.50
16827;DHT22;8530;49.540;8.576;2022-08-03T04:16:47;20.00;47.50
16827;DHT22;8530;49.540;8.576;2022-08-03T04:19:17;20.10;47.60
16827;DHT22;8530;49.540;8.576;2022-08-03T04:21:48;20.10;47.60
16827;DHT22;8530;49.540;8.576;2022-08-03T04:24:17;20.10;47.60
16827;DHT22;8530;49.540;8.576;2022-08-03T04:26:47;20.20;47.70
16827;DHT22;8530;49.540;8.576;2022-08-03T04:29:17;20.20;47.70
16827;DHT22;8530;49.540;8.576;2022-08-03T04:31:45;20.30;47.80
16827;DHT22;8530;49.540;8.576;2022-08-03T04:34:12;20.30;47.70
16827;DHT22;8530;49.540;8.576;2022-08-03T04:36:44;20.40;47.70
16827;DHT22;8530;49.540;8.576;2022-08-03T04:39:15;20.50;48.30
16827;DHT22;8530;49.540;8.576;2022-08-03T04:41:44;20.50;47.70
16827;DHT22;8530;49.540;8.576;2022-08-03T04:44:12;20.50;47.70
16827;DHT22;8530;49.540;8.576;2022-08-03T04:46:41;20.60;47.70
16827;DHT22;8530;49.540;8.576;2022-08-03T04:49:09;20.70;47.60
16827;DHT22;8530;49.540;8.576;2022-08-03T04:51:36;20.80;47.60
16827;DHT22;8530;49.540;8.576;2022-08-03T04:54:05;20.80;47.50
16827;DHT22;8530;49.540;8.576;2022-08-03T04:56:32;20.90;47.50
16827;DHT22;8530;49.540;8.576;2022-08-03T04:59:00;20.90;47.40
16827;DHT22;8530;49.540;8.576;2022-08-03T05:01:27;21.00;47.40
16827;DHT22;8530;49.540;8.576;2022-08-03T05:03:55;21.00;47.40
16827;DHT22;8530;49.540;8.576;2022-08-03T05:06:22;21.10;47.40
16827;DHT22;8530;49.540;8.576;2022-08-03T05:08:49;21.10;47.30
16827;DHT22;8530;49.540;8.576;2022-08-03T05:11:16;21.20;47.30
16827;DHT22;8530;49.540;8.576;2022-08-03T05:13:43;21.20;47.30
16827;DHT22;8530;49.540;8.576;2022-08-03T05:16:10;21.30;47.30
16827;DHT22;8530;49.540;8.576;2022-08-03T05:18:38;21.30;47.20
16827;DHT22;8530;49.540;8.576;2022-08-03T05:21:06;21.40;47.20
16827;DHT22;8530;49.540;8.576;2022-08-03T05:23:32;21.40;47.10
16827;DHT22;8530;49.540;8.576;2022-08-03T05:26:00;21.50;47.20
16827;DHT22;8530;49.540;8.576;2022-08-03T05:28:26;21.60;47.10
16827;DHT22;8530;49.540;8.576;2022-08-03T05:30:53;21.60;46.90
16827;DHT22;8530;49.540;8.576;2022-08-03T05:33:20;21.70;46.80
16827;DHT22;8530;49.540;8.576;2022-08-03T05:35:46;21.80;46.80
16827;DHT22;8530;49.540;8.576;2022-08-03T05:38:14;21.90;46.70
16827;DHT22;8530;49.540;8.576;2022-08-03T05:40:41;22.10;46.70
16827;DHT22;8530;49.540;8.576;2022-08-03T05:43:08;22.20;46.60
16827;DHT22;8530;49.540;8.576;2022-08-03T05:45:35;22.30;46.40
16827;DHT22;8530;49.540;8.576;2022-08-03T05:48:03;22.40;46.20
16827;DHT22;8530;49.540;8.576;2022-08-03T05:50:29;22.50;46.00
16827;DHT22;8530;49.540;8.576;2022-08-03T05:52:56;22.70;45.90
16827;DHT22;8530;49.540;8.576;2022-08-03T05:55:25;22.90;45.70
16827;DHT22;8530;49.540;8.576;2022-08-03T05:57:51;23.10;45.50
16827;DHT22;8530;49.540;8.576;2022-08-03T06:00:18;23.30;45.20
16827;DHT22;8530;49.540;8.576;2022-08-03T06:02:45;23.70;45.30
16827;DHT22;8530;49.540;8.576;2022-08-03T06:05:11;24.60;46.10
16827;DHT22;8530;49.540;8.576;2022-08-03T06:07:38;26.90;45.60
16827;DHT22;8530;49.540;8.576;2022-08-03T06:10:06;30.10;42.90
16827;DHT22;8530;49.540;8.576;2022-08-03T06:12:34;33.00;39.50
16827;DHT22;8530;49.540;8.576;2022-08-03T06:15:01;35.70;35.00
16827;DHT22;8530;49.540;8.576;2022-08-03T06:17:29;38.10;31.70
16827;DHT22;8530;49.540;8.576;2022-08-03T06:19:55;40.10;28.90
16827;DHT22;8530;49.540;8.576;2022-08-03T06:22:22;41.70;26.50
16827;DHT22;8530;49.540;8.576;2022-08-03T06:24:49;42.70;24.40
16827;DHT22;8530;49.540;8.576;2022-08-03T06:27:15;43.80;22.90
16827;DHT22;8530;49.540;8.576;2022-08-03T06:29:43;45.00;21.30
16827;DHT22;8530;49.540;8.576;2022-08-03T06:32:10;46.10;20.00
16827;DHT22;8530;49.540;8.576;2022-08-03T06:34:37;47.40;18.70
16827;DHT22;8530;49.540;8.576;2022-08-03T06:37:03;48.10;17.30
16827;DHT22;8530;49.540;8.576;2022-08-03T06:39:30;48.90;16.20
16827;DHT22;8530;49.540;8.576;2022-08-03T06:41:57;49.60;15.30
16827;DHT22;8530;49.540;8.576;2022-08-03T06:44:23;50.50;14.50
16827;DHT22;8530;49.540;8.576;2022-08-03T06:46:51;51.20;14.10
16827;DHT22;8530;49.540;8.576;2022-08-03T06:49:18;51.30;13.40
16827;DHT22;8530;49.540;8.576;2022-08-03T06:51:45;51.40;13.30
16827;DHT22;8530;49.540;8.576;2022-08-03T06:54:11;51.70;12.80
16827;DHT22;8530;49.540;8.576;2022-08-03T06:56:38;52.20;12.30
16827;DHT22;8530;49.540;8.576;2022-08-03T06:59:05;53.00;11.80
16827;DHT22;8530;49.540;8.576;2022-08-03T07:01:32;53.70;11.40
16827;DHT22;8530;49.540;8.576;2022-08-03T07:04:00;54.10;11.00
16827;DHT22;8530;49.540;8.576;2022-08-03T07:06:26;54.20;10.80
16827;DHT22;8530;49.540;8.576;2022-08-03T07:08:53;53.70;10.90
16827;DHT22;8530;49.540;8.576;2022-08-03T07:11:21;53.60;10.80
16827;DHT22;8530;49.540;8.576;2022-08-03T07:13:47;54.00;10.70
16827;DHT22;8530;49.540;8.576;2022-08-03T07:16:14;54.40;10.50
16827;DHT22;8530;49.540;8.576;2022-08-03T07:18:41;54.90;10.30
16827;DHT22;8530;49.540;8.576;2022-08-03T07:21:09;55.80;9.90
16827;DHT22;8530;49.540;8.576;2022-08-03T07:23:37;56.20;9.50
16827;DHT22;8530;49.540;8.576;2022-08-03T07:26:03;56.60;9.20
16827;DHT22;8530;49.540;8.576;2022-08-03T07:28:30;57.00;8.90
16827;DHT22;8530;49.540;8.576;2022-08-03T07:30:57;56.90;8.80
16827;DHT22;8530;49.540;8.576;2022-08-03T07:33:24;56.90;8.60
16827;DHT22;8530;49.540;8.576;2022-08-03T07:35:51;57.10;8.40
16827;DHT22;8530;49.540;8.576;2022-08-03T07:38:19;57.10;8.20
16827;DHT22;8530;49.540;8.576;2022-08-03T07:40:45;57.50;8.10
16827;DHT22;8530;49.540;8.576;2022-08-03T07:43:12;57.50;8.10
16827;DHT22;8530;49.540;8.576;2022-08-03T07:45:39;57.70;8.00
16827;DHT22;8530;49.540;8.576;2022-08-03T07:48:05;58.00;7.80
16827;DHT22;8530;49.540;8.576;2022-08-03T07:50:32;58.20;7.70
16827;DHT22;8530;49.540;8.576;2022-08-03T07:52:59;58.30;7.60
16827;DHT22;8530;49.540;8.576;2022-08-03T07:55:27;58.40;7.50
16827;DHT22;8530;49.540;8.576;2022-08-03T07:58:06;58.00;7.60
16827;DHT22;8530;49.540;8.576;2022-08-03T08:00:35;57.90;7.70
16827;DHT22;8530;49.540;8.576;2022-08-03T08:03:02;57.90;7.60
16827;DHT22;8530;49.540;8.576;2022-08-03T08:05:29;58.10;7.50
16827;DHT22;8530;49.540;8.576;2022-08-03T08:07:55;58.30;7.30
16827;DHT22;8530;49.540;8.576;2022-08-03T08:10:22;58.40;7.20
16827;DHT22;8530;49.540;8.576;2022-08-03T08:12:50;58.20;7.50
16827;DHT22;8530;49.540;8.576;2022-08-03T08:15:17;57.60;7.00
16827;DHT22;8530;49.540;8.576;2022-08-03T08:17:46;56.70;7.00
16827;DHT22;8530;49.540;8.576;2022-08-03T08:20:16;56.10;7.10
16827;DHT22;8530;49.540;8.576;2022-08-03T08:22:43;55.90;7.10
16827;DHT22;8530;49.540;8.576;2022-08-03T08:25:10;55.60;7.00
16827;DHT22;8530;49.540;8.576;2022-08-03T08:27:41;55.00;6.90
16827;DHT22;8530;49.540;8.576;2022-08-03T08:30:11;53.90;6.90
16827;DHT22;8530;49.540;8.576;2022-08-03T08:32:38;52.40;7.20
16827;DHT22;8530;49.540;8.576;2022-08-03T08:35:07;50.30;7.50
16827;DHT22;8530;49.540;8.576;2022-08-03T08:37:34;48.50;7.90
16827;DHT22;8530;49.540;8.576;2022-08-03T08:40:01;46.80;8.20
16827;DHT22;8530;49.540;8.576;2022-08-03T08:42:28;45.20;8.80
16827;DHT22;8530;49.540;8.576;2022-08-03T08:44:54;43.50;9.70
16827;DHT22;8530;49.540;8.576;2022-08-03T08:47:24;41.70;10.40
16827;DHT22;8530;49.540;8.576;2022-08-03T08:49:52;40.40;11.30
16827;DHT22;8530;49.540;8.576;2022-08-03T08:52:21;39.50;11.80
16827;DHT22;8530;49.540;8.576;2022-08-03T08:54:49;38.70;12.50
16827;DHT22;8530;49.540;8.576;2022-08-03T08:57:17;37.90;13.00
16827;DHT22;8530;49.540;8.576;2022-08-03T08:59:45;37.30;13.60
16827;DHT22;8530;49.540;8.576;2022-08-03T09:02:12;36.80;14.10
16827;DHT22;8530;49.540;8.576;2022-08-03T09:04:40;36.40;14.60
16827;DHT22;8530;49.540;8.576;2022-08-03T09:07:07;36.10;15.10
16827;DHT22;8530;49.540;8.576;2022-08-03T09:09:34;36.00;15.50
16827;DHT22;8530;49.540;8.576;2022-08-03T09:12:01;35.80;15.80
16827;DHT22;8530;49.540;8.576;2022-08-03T09:14:28;35.70;16.20
16827;DHT22;8530;49.540;8.576;2022-08-03T09:16:56;35.50;16.50
16827;DHT22;8530;49.540;8.576;2022-08-03T09:19:27;35.30;16.80
16827;DHT22;8530;49.540;8.576;2022-08-03T09:22:10;35.10;17.20
16827;DHT22;8530;49.540;8.576;2022-08-03T09:24:38;35.00;17.70
16827;DHT22;8530;49.540;8.576;2022-08-03T09:27:10;34.90;17.80
16827;DHT22;8530;49.540;8.576;2022-08-03T09:29:38;34.90;18.10
16827;DHT22;8530;49.540;8.576;2022-08-03T09:32:06;34.90;18.70
16827;DHT22;8530;49.540;8.576;2022-08-03T09:34:33;34.90;18.40
16827;DHT22;8530;49.540;8.576;2022-08-03T09:36:59;34.90;18.60
16827;DHT22;8530;49.540;8.576;2022-08-03T09:39:28;34.90;18.70
16827;DHT22;8530;49.540;8.576;2022-08-03T09:42:06;35.00;18.90
16827;DHT22;8530;49.540;8.576;2022-08-03T09:44:34;35.10;19.10
16827;DHT22;8530;49.540;8.576;2022-08-03T09:47:02;35.10;19.10
16827;DHT22;8530;49.540;8.576;2022-08-03T09:49:29;35.10;19.30
16827;DHT22;8530;49.540;8.576;2022-08-03T09:51:56;35.10;19.40
16827;DHT22;8530;49.540;8.576;2022-08-03T09:54:28;35.10;19.50
16827;DHT22;8530;49.540;8.576;2022-08-03T09:56:55;35.10;19.60
16827;DHT22;8530;49.540;8.576;2022-08-03T09:59:23;35.10;19.70
16827;DHT22;8530;49.540;8.576;2022-08-03T10:01:51;35.20;19.80
16827;DHT22;8530;49.540;8.576;2022-08-03T10:04:18;35.20;19.80
16827;DHT22;8530;49.540;8.576;2022-08-03T10:06:49;35.10;19.80
16827;DHT22;8530;49.540;8.576;2022-08-03T10:09:28;35.10;19.90
16827;DHT22;8530;49.540;8.576;2022-08-03T10:11:54;35.10;20.00
16827;DHT22;8530;49.540;8.576;2022-08-03T10:14:22;35.20;20.20
16827;DHT22;8530;49.540;8.576;2022-08-03T10:16:50;35.10;20.30
16827;DHT22;8530;49.540;8.576;2022-08-03T10:19:17;35.10;20.40
16827;DHT22;8530;49.540;8.576;2022-08-03T10:21:48;35.00;20.50
16827;DHT22;8530;49.540;8.576;2022-08-03T10:24:19;35.00;20.80
16827;DHT22;8530;49.540;8.576;2022-08-03T10:26:49;34.90;21.00
16827;DHT22;8530;49.540;8.576;2022-08-03T10:29:20;34.90;21.10
16827;DHT22;8530;49.540;8.576;2022-08-03T10:31:52;34.90;21.20
16827;DHT22;8530;49.540;8.576;2022-08-03T10:34:22;34.90;21.80
16827;DHT22;8530;49.540;8.576;2022-08-03T10:36:51;35.00;21.40
16827;DHT22;8530;49.540;8.576;2022-08-03T10:39:21;35.10;21.50
16827;DHT22;8530;49.540;8.576;2022-08-03T10:41:52;35.20;21.50
16827;DHT22;8530;49.540;8.576;2022-08-03T10:44:23;35.30;21.40
16827;DHT22;8530;49.540;8.576;2022-08-03T10:46:52;35.40;21.40
16827;DHT22;8530;49.540;8.576;2022-08-03T10:49:19;35.50;21.50
16827;DHT22;8530;49.540;8.576;2022-08-03T10:51:47;35.50;21.50
16827;DHT22;8530;49.540;8.576;2022-08-03T10:54:39;35.60;21.60
16827;DHT22;8530;49.540;8.576;2022-08-03T10:57:46;35.70;21.60
16827;DHT22;8530;49.540;8.576;2022-08-03T11:00:14;35.90;21.50
16827;DHT22;8530;49.540;8.576;2022-08-03T11:03:03;36.00;21.50
16827;DHT22;8530;49.540;8.576;2022-08-03T11:05:32;36.10;21.40
16827;DHT22;8530;49.540;8.576;2022-08-03T11:08:33;36.10;21.20
16827;DHT22;8530;49.540;8.576;2022-08-03T11:11:02;36.10;21.20
16827;DHT22;8530;49.540;8.576;2022-08-03T11:13:30;36.00;21.20
16827;DHT22;8530;49.540;8.576;2022-08-03T11:16:00;36.00;21.30
16827;DHT22;8530;49.540;8.576;2022-08-03T11:18:28;36.00;21.40
16827;DHT22;8530;49.540;8.576;2022-08-03T11:20:56;36.00;21.40
16827;DHT22;8530;49.540;8.576;2022-08-03T11:23:43;36.10;21.40
16827;DHT22;8530;49.540;8.576;2022-08-03T11:26:15;36.20;21.30
16827;DHT22;8530;49.540;8.576;2022-08-03T11:28:45;36.20;21.30
16827;DHT22;8530;49.540;8.576;2022-08-03T11:31:44;36.20;21.30
16827;DHT22;8530;49.540;8.576;2022-08-03T11:34:15;36.20;21.20
16827;DHT22;8530;49.540;8.576;2022-08-03T11:37:20;36.30;21.20
16827;DHT22;8530;49.540;8.576;2022-08-03T11:39:49;36.40;21.30
16827;DHT22;8530;49.540;8.576;2022-08-03T11:42:42;36.50;21.20
16827;DHT22;8530;49.540;8.576;2022-08-03T11:45:11;36.60;21.10
16827;DHT22;8530;49.540;8.576;2022-08-03T11:47:40;36.70;21.00
16827;DHT22;8530;49.540;8.576;2022-08-03T11:50:09;36.60;20.90
16827;DHT22;8530;49.540;8.576;2022-08-03T11:52:39;36.50;20.90
16827;DHT22;8530;49.540;8.576;2022-08-03T11:55:17;36.50;20.90
16827;DHT22;8530;49.540;8.576;2022-08-03T11:57:45;36.50;21.00
16827;DHT22;8530;49.540;8.576;2022-08-03T12:00:27;36.60;21.00
16827;DHT22;8530;49.540;8.576;2022-08-03T12:02:59;36.70;20.90
16827;DHT22;8530;49.540;8.576;2022-08-03T12:05:34;36.90;20.90
16827;DHT22;8530;49.540;8.576;2022-08-03T12:08:01;37.00;20.70
16827;DHT22;8530;49.540;8.576;2022-08-03T12:10:28;37.10;20.60
16827;DHT22;8530;49.540;8.576;2022-08-03T12:12:55;37.00;20.50
16827;DHT22;8530;49.540;8.576;2022-08-03T12:15:28;37.00;20.40
16827;DHT22;8530;49.540;8.576;2022-08-03T12:17:56;37.00;20.40
16827;DHT22;8530;49.540;8.576;2022-08-03T12:20:24;37.00;20.40
16827;DHT22;8530;49.540;8.576;2022-08-03T12:22:52;36.90;20.40
16827;DHT22;8530;49.540;8.576;2022-08-03T12:25:23;36.80;20.40
16827;DHT22;8530;49.540;8.576;2022-08-03T12:27:50;36.90;20.50
16827;DHT22;8530;49.540;8.576;2022-08-03T12:30:17;36.90;20.50
16827;DHT22;8530;49.540;8.576;2022-08-03T12:32:45;36.90;20.50
16827;DHT22;8530;49.540;8.576;2022-08-03T12:35:21;36.90;20.40
16827;DHT22;8530;49.540;8.576;2022-08-03T12:37:49;36.90;20.50
16827;DHT22;8530;49.540;8.576;2022-08-03T12:40:23;37.00;20.50
16827;DHT22;8530;49.540;8.576;2022-08-03T12:42:51;37.20;20.60
16827;DHT22;8530;49.540;8.576;2022-08-03T12:45:19;37.30;20.50
16827;DHT22;8530;49.540;8.576;2022-08-03T12:47:53;37.40;20.40
16827;DHT22;8530;49.540;8.576;2022-08-03T12:50:24;37.40;20.30
16827;DHT22;8530;49.540;8.576;2022-08-03T12:52:51;37.40;20.20
16827;DHT22;8530;49.540;8.576;2022-08-03T12:55:19;37.50;20.10
16827;DHT22;8530;49.540;8.576;2022-08-03T12:57:46;37.60;19.90
16827;DHT22;8530;49.540;8.576;2022-08-03T13:00:15;37.70;19.70
16827;DHT22;8530;49.540;8.576;2022-08-03T13:02:42;37.70;19.40
16827;DHT22;8530;49.540;8.576;2022-08-03T13:05:12;37.70;19.30
16827;DHT22;8530;49.540;8.576;2022-08-03T13:07:39;37.70;19.20
16827;DHT22;8530;49.540;8.576;2022-08-03T13:10:07;37.60;19.00
16827;DHT22;8530;49.540;8.576;2022-08-03T13:12:45;37.60;19.00
16827;DHT22;8530;49.540;8.576;2022-08-03T13:15:12;37.70;19.00
16827;DHT22;8530;49.540;8.576;2022-08-03T13:17:39;37.70;19.00
16827;DHT22;8530;49.540;8.576;2022-08-03T13:20:06;37.70;19.00
16827;DHT22;8530;49.540;8.576;2022-08-03T13:22:34;37.70;19.00
16827;DHT22;8530;49.540;8.576;2022-08-03T13:25:02;37.70;19.00
16827;DHT22;8530;49.540;8.576;2022-08-03T13:27:30;37.80;19.10
16827;DHT22;8530;49.540;8.576;2022-08-03T13:29:57;37.90;19.00
16827;DHT22;8530;49.540;8.576;2022-08-03T13:32:23;38.00;18.90
16827;DHT22;8530;49.540;8.576;2022-08-03T13:34:50;38.10;18.90
16827;DHT22;8530;49.540;8.576;2022-08-03T13:37:17;38.10;18.70
16827;DHT22;8530;49.540;8.576;2022-08-03T13:39:45;38.00;18.40
16827;DHT22;8530;49.540;8.576;2022-08-03T13:42:12;37.90;18.20
16827;DHT22;8530;49.540;8.576;2022-08-03T13:44:38;37.80;18.20
16827;DHT22;8530;49.540;8.576;2022-08-03T13:47:05;37.80;18.20
16827;DHT22;8530;49.540;8.576;2022-08-03T13:49:32;37.90;18.30
16827;DHT22;8530;49.540;8.576;2022-08-03T13:51:58;37.90;18.40
16827;DHT22;8530;49.540;8.576;2022-08-03T13:54:25;37.90;18.40
16827;DHT22;8530;49.540;8.576;2022-08-03T13:56:53;37.90;18.40
16827;DHT22;8530;49.540;8.576;2022-08-03T13:59:21;37.90;18.40
16827;DHT22;8530;49.540;8.576;2022-08-03T14:01:50;37.90;18.40
16827;DHT22;8530;49.540;8.576;2022-08-03T14:04:17;37.90;18.40
16827;DHT22;8530;49.540;8.576;2022-08-03T14:06:44;37.90;18.50
16827;DHT22;8530;49.540;8.576;2022-08-03T14:09:11;37.90;18.50
16827;DHT22;8530;49.540;8.576;2022-08-03T14:11:38;37.90;18.60
16827;DHT22;8530;49.540;8.576;2022-08-03T14:14:06;37.90;18.50
16827;DHT22;8530;49.540;8.576;2022-08-03T14:16:33;37.90;18.40
16827;DHT22;8530;49.540;8.576;2022-08-03T14:18:59;38.00;18.40
16827;DHT22;8530;49.540;8.576;2022-08-03T14:21:26;38.00;18.40
16827;DHT22;8530;49.540;8.576;2022-08-03T14:23:53;38.00;18.40
16827;DHT22;8530;49.540;8.576;2022-08-03T14:26:21;37.80;18.40
16827;DHT22;8530;49.540;8.576;2022-08-03T14:28:48;37.70;18.50
16827;DHT22;8530;49.540;8.576;2022-08-03T14:31:16;37.70;18.50
16827;DHT22;8530;49.540;8.576;2022-08-03T14:33:43;37.70;18.60
16827;DHT22;8530;49.540;8.576;2022-08-03T14:36:10;37.70;18.70
16827;DHT22;8530;49.540;8.576;2022-08-03T14:38:36;37.70;18.80
16827;DHT22;8530;49.540;8.576;2022-08-03T14:41:03;37.80;18.70
16827;DHT22;8530;49.540;8.576;2022-08-03T14:43:30;37.90;18.70
16827;DHT22;8530;49.540;8.576;2022-08-03T14:45:56;37.90;18.60
16827;DHT22;8530;49.540;8.576;2022-08-03T14:48:24;37.90;18.60
16827;DHT22;8530;49.540;8.576;2022-08-03T14:50:51;37.80;18.50
16827;DHT22;8530;49.540;8.576;2022-08-03T14:53:19;37.70;18.50
16827;DHT22;8530;49.540;8.576;2022-08-03T14:55:47;37.70;18.60
16827;DHT22;8530;49.540;8.576;2022-08-03T14:58:14;37.70;18.70
16827;DHT22;8530;49.540;8.576;2022-08-03T15:00:40;37.70;18.80
16827;DHT22;8530;49.540;8.576;2022-08-03T15:03:07;37.70;18.80
16827;DHT22;8530;49.540;8.576;2022-08-03T15:05:35;37.70;18.90
16827;DHT22;8530;49.540;8.576;2022-08-03T15:08:02;37.80;18.90
16827;DHT22;8530;49.540;8.576;2022-08-03T15:10:29;37.80;18.90
16827;DHT22;8530;49.540;8.576;2022-08-03T15:12:55;37.80;18.90
16827;DHT22;8530;49.540;8.576;2022-08-03T15:15:22;37.70;18.90
16827;DHT22;8530;49.540;8.576;2022-08-03T15:17:49;37.60;18.90
16827;DHT22;8530;49.540;8.576;2022-08-03T15:20:16;37.50;19.00
16827;DHT22;8530;49.540;8.576;2022-08-03T15:22:44;37.50;19.10
16827;DHT22;8530;49.540;8.576;2022-08-03T15:25:11;37.40;19.10
16827;DHT22;8530;49.540;8.576;2022-08-03T15:27:37;37.40;19.10
16827;DHT22;8530;49.540;8.576;2022-08-03T15:30:05;37.40;19.10
16827;DHT22;8530;49.540;8.576;2022-08-03T15:32:32;37.50;19.20
16827;DHT22;8530;49.540;8.576;2022-08-03T15:34:59;37.50;19.10
16827;DHT22;8530;49.540;8.576;2022-08-03T15:37:26;37.60;19.10
16827;DHT22;8530;49.540;8.576;2022-08-03T15:39:54;37.60;19.00
16827;DHT22;8530;49.540;8.576;2022-08-03T15:42:21;37.60;18.90
16827;DHT22;8530;49.540;8.576;2022-08-03T15:44:47;37.60;18.80
16827;DHT22;8530;49.540;8.576;2022-08-03T15:47:14;37.70;18.80
16827;DHT22;8530;49.540;8.576;2022-08-03T15:49:41;37.70;18.70
16827;DHT22;8530;49.540;8.576;2022-08-03T15:52:08;37.70;18.70
16827;DHT22;8530;49.540;8.576;2022-08-03T15:54:34;37.70;18.60
16827;DHT22;8530;49.540;8.576;2022-08-03T15:57:03;37.70;18.60
16827;DHT22;8530;49.540;8.576;2022-08-03T15:59:29;37.70;18.60